Airfield :
LOGIN :

Register | Disclaimer

   EN    FR    IT 

 










Legend :    VFR   Marginal VFR   IFR   Intensive IFR   Very Intensive IFR
Visi :
Ceiling :
>= 8 km
>= 3000ft
5 to 8 km
1000 to 3000 ft
1500m to 5 km
500 to 1000 ft
800 to 1500m
200 to 500 ft
< 800m
< 200 ft
Symbols :   Thunderstorms  Fog  Heavy snow  Heavy precipitations  Wind > 20 kt
SIGMETs :     Misc.  Thunderstorms  Icing  Turbulence  Mountain Waves  Volcanic Ashes






- Airport Elevation : 59 ft
- IATA code : TSF


LIPH - Treviso

CURRENT METAR :
  • 232120Z AUTO VRB02KT 9999 NCD 23/19 Q1014

EXPIRED METARs :
  • 232050Z VRB01KT CAVOK 24/21 Q1014
  • 232020Z VRB01KT CAVOK 25/21 Q1014
  • 231920Z 33002KT 9999 FEW040 27/22 Q1014
  • 231850Z VRB01KT 9999 VCTS FEW035CB 28/22 Q1014

TAF TAF LIPH
Valid from the 23 at 18:00 until the 24 at 18:00 UTC


231700Z 2318/2418 VRB05KT 9999 SCT030
TEMPO 2318/2323 4000 TSRA
BECMG 2408/2410 14010KT



MET'MAP, your aeronautical weather chart ! - Copyright ORBIFLY December 2007 - Disclaimer

ORBIFLY MET'MAP TEAM :

Programming & Development : Alexandra Zaïnal
Concept & original design : Baudouin d'Aumeries
Assistance for programming : Marc-Olivier Méhu
Technical & hardware support : Manuel Goepfert

Contact : metmap@orbifly.com




SOURCES & CREDITS :

   NOAA